Terminal Aerodrome Forecast
Issued by NWS

Home | Current Version | Previous Version | Text Only | Print | Product List | Glossary On
Versions: 1 2 3 4 5 6 7 8 9 10 11 12 13 14
000
FTUS43 KMQT 222334
TAFCMX
TAF
KCMX 222334Z 2300/2324 09006KT P6SM SKC
     FM230500 24007KT P6SM SKC
     FM230700 24010KT P6SM SCT120 WS010/25035KT
     FM231300 27019G25KT P6SM SCT120=

USA.gov is the U.S. government's official web portal to all federal, state and local government web resources and services.